sensor_id;sensor_type;location;lat;lon;timestamp;pressure;altitude;pressure_sealevel;temperature;humidity
23166;BME280;11751;42.700;24.170;2022-08-19T00:02:21;93726.50;;;20.49;nan
23166;BME280;11751;42.700;24.170;2022-08-19T00:04:47;93735.13;;;20.51;nan
23166;BME280;11751;42.700;24.170;2022-08-19T00:07:18;93732.50;;;20.55;nan
23166;BME280;11751;42.700;24.170;2022-08-19T00:09:43;93727.75;;;20.46;nan
23166;BME280;11751;42.700;24.170;2022-08-19T00:12:09;93724.59;;;20.40;nan
23166;BME280;11751;42.700;24.170;2022-08-19T00:14:35;93723.28;;;20.16;nan
23166;BME280;11751;42.700;24.170;2022-08-19T00:17:01;93722.25;;;20.23;nan
23166;BME280;11751;42.700;24.170;2022-08-19T00:19:27;93717.59;;;20.16;nan
23166;BME280;11751;42.700;24.170;2022-08-19T00:21:53;93719.41;;;20.23;nan
23166;BME280;11751;42.700;24.170;2022-08-19T00:24:21;93718.03;;;20.24;nan
23166;BME280;11751;42.700;24.170;2022-08-19T00:26:46;93718.25;;;20.28;nan
23166;BME280;11751;42.700;24.170;2022-08-19T00:29:15;93725.19;;;20.11;nan
23166;BME280;11751;42.700;24.170;2022-08-19T00:31:41;93714.03;;;20.15;nan
23166;BME280;11751;42.700;24.170;2022-08-19T00:34:08;93718.66;;;20.09;nan
23166;BME280;11751;42.700;24.170;2022-08-19T00:36:33;93712.84;;;20.07;nan
23166;BME280;11751;42.700;24.170;2022-08-19T00:38:59;93712.31;;;19.97;nan
23166;BME280;11751;42.700;24.170;2022-08-19T00:41:25;93706.84;;;20.01;nan
23166;BME280;11751;42.700;24.170;2022-08-19T00:44:03;93717.84;;;19.95;nan
23166;BME280;11751;42.700;24.170;2022-08-19T00:46:29;93718.00;;;19.97;nan
23166;BME280;11751;42.700;24.170;2022-08-19T00:48:56;93714.50;;;19.98;nan
23166;BME280;11751;42.700;24.170;2022-08-19T00:51:24;93707.56;;;20.01;nan
23166;BME280;11751;42.700;24.170;2022-08-19T00:53:52;93706.63;;;19.97;nan
23166;BME280;11751;42.700;24.170;2022-08-19T00:56:18;93715.53;;;19.91;nan
23166;BME280;11751;42.700;24.170;2022-08-19T00:58:43;93723.91;;;20.01;nan
23166;BME280;11751;42.700;24.170;2022-08-19T01:01:09;93706.63;;;19.97;nan
23166;BME280;11751;42.700;24.170;2022-08-19T01:03:35;93712.03;;;19.93;nan
23166;BME280;11751;42.700;24.170;2022-08-19T01:06:00;93711.59;;;19.85;nan
23166;BME280;11751;42.700;24.170;2022-08-19T01:08:26;93710.94;;;19.73;nan
23166;BME280;11751;42.700;24.170;2022-08-19T01:10:58;93716.13;;;19.77;nan
23166;BME280;11751;42.700;24.170;2022-08-19T01:13:27;93723.19;;;19.76;nan
23166;BME280;11751;42.700;24.170;2022-08-19T01:16:01;93727.97;;;19.73;nan
23166;BME280;11751;42.700;24.170;2022-08-19T01:18:28;93722.41;;;19.75;nan
23166;BME280;11751;42.700;24.170;2022-08-19T01:20:58;93717.44;;;19.62;nan
23166;BME280;11751;42.700;24.170;2022-08-19T01:23:26;93717.94;;;19.59;nan
23166;BME280;11751;42.700;24.170;2022-08-19T01:26:12;93728.25;;;19.52;nan
23166;BME280;11751;42.700;24.170;2022-08-19T01:28:39;93732.31;;;19.49;nan
23166;BME280;11751;42.700;24.170;2022-08-19T01:31:09;93723.22;;;19.39;nan
23166;BME280;11751;42.700;24.170;2022-08-19T01:33:37;93726.47;;;19.34;nan
23166;BME280;11751;42.700;24.170;2022-08-19T01:36:12;93736.16;;;19.17;nan
23166;BME280;11751;42.700;24.170;2022-08-19T01:38:41;93738.47;;;19.21;nan
23166;BME280;11751;42.700;24.170;2022-08-19T01:41:09;93734.78;;;19.18;nan
23166;BME280;11751;42.700;24.170;2022-08-19T01:43:34;93732.53;;;19.28;nan
23166;BME280;11751;42.700;24.170;2022-08-19T01:46:00;93739.56;;;19.27;nan
23166;BME280;11751;42.700;24.170;2022-08-19T01:48:27;93727.63;;;19.17;nan
23166;BME280;11751;42.700;24.170;2022-08-19T01:50:54;93723.34;;;19.05;nan
23166;BME280;11751;42.700;24.170;2022-08-19T01:53:20;93726.81;;;18.92;nan
23166;BME280;11751;42.700;24.170;2022-08-19T01:55:46;93728.56;;;18.86;nan
23166;BME280;11751;42.700;24.170;2022-08-19T01:58:15;93730.16;;;18.88;nan
23166;BME280;11751;42.700;24.170;2022-08-19T02:00:43;93729.41;;;18.99;nan
23166;BME280;11751;42.700;24.170;2022-08-19T02:03:09;93724.06;;;19.05;nan
23166;BME280;11751;42.700;24.170;2022-08-19T02:05:36;93721.22;;;19.05;nan
23166;BME280;11751;42.700;24.170;2022-08-19T02:08:02;93726.91;;;19.05;nan
23166;BME280;11751;42.700;24.170;2022-08-19T02:10:27;93718.16;;;19.01;nan
23166;BME280;11751;42.700;24.170;2022-08-19T02:12:53;93727.06;;;18.96;nan
23166;BME280;11751;42.700;24.170;2022-08-19T02:15:19;93718.81;;;18.88;nan
23166;BME280;11751;42.700;24.170;2022-08-19T02:17:46;93727.59;;;18.81;nan
23166;BME280;11751;42.700;24.170;2022-08-19T02:20:12;93724.66;;;18.79;nan
23166;BME280;11751;42.700;24.170;2022-08-19T02:22:38;93725.63;;;18.84;nan
23166;BME280;11751;42.700;24.170;2022-08-19T02:25:07;93735.50;;;18.83;nan
23166;BME280;11751;42.700;24.170;2022-08-19T02:27:32;93736.50;;;18.64;nan
23166;BME280;11751;42.700;24.170;2022-08-19T02:29:59;93724.91;;;18.72;nan
23166;BME280;11751;42.700;24.170;2022-08-19T02:32:24;93734.91;;;18.73;nan
23166;BME280;11751;42.700;24.170;2022-08-19T02:34:50;93730.72;;;18.74;nan
23166;BME280;11751;42.700;24.170;2022-08-19T02:37:16;93732.69;;;18.60;nan
23166;BME280;11751;42.700;24.170;2022-08-19T02:40:00;93729.59;;;18.56;nan
23166;BME280;11751;42.700;24.170;2022-08-19T02:42:26;93735.19;;;18.54;nan
23166;BME280;11751;42.700;24.170;2022-08-19T02:44:51;93732.34;;;18.54;nan
23166;BME280;11751;42.700;24.170;2022-08-19T02:47:18;93731.84;;;18.46;nan
23166;BME280;11751;42.700;24.170;2022-08-19T02:49:44;93728.63;;;18.51;nan
23166;BME280;11751;42.700;24.170;2022-08-19T02:52:10;93736.78;;;18.34;nan
23166;BME280;11751;42.700;24.170;2022-08-19T02:54:37;93748.00;;;18.43;nan
23166;BME280;11751;42.700;24.170;2022-08-19T02:57:04;93739.97;;;18.40;nan
23166;BME280;11751;42.700;24.170;2022-08-19T02:59:30;93745.91;;;18.44;nan
23166;BME280;11751;42.700;24.170;2022-08-19T03:01:56;93751.31;;;18.40;nan
23166;BME280;11751;42.700;24.170;2022-08-19T03:04:21;93741.97;;;18.37;nan
23166;BME280;11751;42.700;24.170;2022-08-19T03:06:48;93752.06;;;18.40;nan
23166;BME280;11751;42.700;24.170;2022-08-19T03:09:14;93750.59;;;18.39;nan
23166;BME280;11751;42.700;24.170;2022-08-19T03:11:40;93746.63;;;18.44;nan
23166;BME280;11751;42.700;24.170;2022-08-19T03:14:07;93747.63;;;18.49;nan
23166;BME280;11751;42.700;24.170;2022-08-19T03:16:36;93757.88;;;18.54;nan
23166;BME280;11751;42.700;24.170;2022-08-19T03:19:04;93747.41;;;18.45;nan
23166;BME280;11751;42.700;24.170;2022-08-19T03:21:32;93754.63;;;18.48;nan
23166;BME280;11751;42.700;24.170;2022-08-19T03:24:01;93755.63;;;18.52;nan
23166;BME280;11751;42.700;24.170;2022-08-19T03:26:28;93759.19;;;18.41;nan
23166;BME280;11751;42.700;24.170;2022-08-19T03:28:54;93755.91;;;18.45;nan
23166;BME280;11751;42.700;24.170;2022-08-19T03:31:21;93764.66;;;18.37;nan
23166;BME280;11751;42.700;24.170;2022-08-19T03:33:51;93756.50;;;18.32;nan
23166;BME280;11751;42.700;24.170;2022-08-19T03:36:20;93757.72;;;18.29;nan
23166;BME280;11751;42.700;24.170;2022-08-19T03:38:52;93763.88;;;18.14;nan
23166;BME280;11751;42.700;24.170;2022-08-19T03:41:22;93768.19;;;18.15;nan
23166;BME280;11751;42.700;24.170;2022-08-19T03:43:48;93759.41;;;18.11;nan
23166;BME280;11751;42.700;24.170;2022-08-19T03:46:17;93756.22;;;18.16;nan
23166;BME280;11751;42.700;24.170;2022-08-19T03:48:43;93765.09;;;18.11;nan
23166;BME280;11751;42.700;24.170;2022-08-19T03:51:22;93761.13;;;18.16;nan
23166;BME280;11751;42.700;24.170;2022-08-19T03:53:48;93761.41;;;18.20;nan
23166;BME280;11751;42.700;24.170;2022-08-19T03:56:14;93763.41;;;18.29;nan
23166;BME280;11751;42.700;24.170;2022-08-19T03:58:40;93769.69;;;18.39;nan
23166;BME280;11751;42.700;24.170;2022-08-19T04:01:13;93772.03;;;18.42;nan
23166;BME280;11751;42.700;24.170;2022-08-19T04:03:39;93769.81;;;18.52;nan
23166;BME280;11751;42.700;24.170;2022-08-19T04:06:17;93766.84;;;18.62;nan
23166;BME280;11751;42.700;24.170;2022-08-19T04:08:45;93770.91;;;18.59;nan
23166;BME280;11751;42.700;24.170;2022-08-19T04:11:16;93782.63;;;18.65;nan
23166;BME280;11751;42.700;24.170;2022-08-19T04:13:42;93783.00;;;18.71;nan
23166;BME280;11751;42.700;24.170;2022-08-19T04:16:09;93779.53;;;18.72;nan
23166;BME280;11751;42.700;24.170;2022-08-19T04:18:36;93787.78;;;18.80;nan
23166;BME280;11751;42.700;24.170;2022-08-19T04:21:02;93778.41;;;18.66;nan
23166;BME280;11751;42.700;24.170;2022-08-19T04:23:28;93778.66;;;18.81;nan
23166;BME280;11751;42.700;24.170;2022-08-19T04:25:54;93785.25;;;19.08;nan
23166;BME280;11751;42.700;24.170;2022-08-19T04:28:20;93776.59;;;19.29;nan
23166;BME280;11751;42.700;24.170;2022-08-19T04:30:49;93778.28;;;19.46;nan
23166;BME280;11751;42.700;24.170;2022-08-19T04:33:17;93778.72;;;19.54;nan
23166;BME280;11751;42.700;24.170;2022-08-19T04:35:46;93780.50;;;19.72;nan
23166;BME280;11751;42.700;24.170;2022-08-19T04:38:14;93775.72;;;19.63;nan
23166;BME280;11751;42.700;24.170;2022-08-19T04:40:42;93773.69;;;19.77;nan
23166;BME280;11751;42.700;24.170;2022-08-19T04:43:27;93764.25;;;19.86;nan
23166;BME280;11751;42.700;24.170;2022-08-19T04:45:52;93773.47;;;19.98;nan
23166;BME280;11751;42.700;24.170;2022-08-19T04:48:18;93761.19;;;20.07;nan
23166;BME280;11751;42.700;24.170;2022-08-19T04:50:51;93760.38;;;20.18;nan
23166;BME280;11751;42.700;24.170;2022-08-19T04:53:22;93761.22;;;20.34;nan
23166;BME280;11751;42.700;24.170;2022-08-19T04:55:47;93756.19;;;20.46;nan
23166;BME280;11751;42.700;24.170;2022-08-19T04:58:12;93747.66;;;20.72;nan
23166;BME280;11751;42.700;24.170;2022-08-19T05:00:39;93753.91;;;21.09;nan
23166;BME280;11751;42.700;24.170;2022-08-19T05:03:04;93754.00;;;21.67;nan
23166;BME280;11751;42.700;24.170;2022-08-19T05:05:30;93755.41;;;22.26;nan
23166;BME280;11751;42.700;24.170;2022-08-19T05:07:56;93759.13;;;22.90;nan
23166;BME280;11751;42.700;24.170;2022-08-19T05:10:21;93755.59;;;23.22;nan
23166;BME280;11751;42.700;24.170;2022-08-19T05:12:47;93766.09;;;23.18;nan
23166;BME280;11751;42.700;24.170;2022-08-19T05:15:12;93776.69;;;23.48;nan
23166;BME280;11751;42.700;24.170;2022-08-19T05:17:38;93772.28;;;23.78;nan
23166;BME280;11751;42.700;24.170;2022-08-19T05:20:23;93773.09;;;24.15;nan
23166;BME280;11751;42.700;24.170;2022-08-19T05:23:10;93780.66;;;24.43;nan
23166;BME280;11751;42.700;24.170;2022-08-19T05:25:39;93783.84;;;24.69;nan
23166;BME280;11751;42.700;24.170;2022-08-19T05:28:04;93791.28;;;24.95;nan
23166;BME280;11751;42.700;24.170;2022-08-19T05:30:30;93790.78;;;25.01;nan
23166;BME280;11751;42.700;24.170;2022-08-19T05:32:55;93796.25;;;25.12;nan
23166;BME280;11751;42.700;24.170;2022-08-19T05:35:21;93803.63;;;24.80;nan
23166;BME280;11751;42.700;24.170;2022-08-19T05:37:49;93803.06;;;24.66;nan
23166;BME280;11751;42.700;24.170;2022-08-19T05:40:14;93799.13;;;24.75;nan
23166;BME280;11751;42.700;24.170;2022-08-19T05:42:40;93803.84;;;24.86;nan
23166;BME280;11751;42.700;24.170;2022-08-19T05:45:06;93805.84;;;25.01;nan
23166;BME280;11751;42.700;24.170;2022-08-19T05:47:32;93799.09;;;25.12;nan
23166;BME280;11751;42.700;24.170;2022-08-19T05:49:57;93798.72;;;25.41;nan
23166;BME280;11751;42.700;24.170;2022-08-19T05:52:23;93789.59;;;25.66;nan
23166;BME280;11751;42.700;24.170;2022-08-19T05:54:48;93789.75;;;25.70;nan
23166;BME280;11751;42.700;24.170;2022-08-19T05:57:16;93783.38;;;25.93;nan
23166;BME280;11751;42.700;24.170;2022-08-19T05:59:41;93787.72;;;25.94;nan
23166;BME280;11751;42.700;24.170;2022-08-19T06:02:07;93792.97;;;26.22;nan
23166;BME280;11751;42.700;24.170;2022-08-19T06:04:33;93788.09;;;26.48;nan
23166;BME280;11751;42.700;24.170;2022-08-19T06:06:58;93793.28;;;26.54;nan
23166;BME280;11751;42.700;24.170;2022-08-19T06:09:24;93787.38;;;26.71;nan
23166;BME280;11751;42.700;24.170;2022-08-19T06:11:52;93792.03;;;26.82;nan
23166;BME280;11751;42.700;24.170;2022-08-19T06:14:24;93792.28;;;26.90;nan
23166;BME280;11751;42.700;24.170;2022-08-19T06:16:50;93795.06;;;27.09;nan
23166;BME280;11751;42.700;24.170;2022-08-19T06:19:19;93805.88;;;27.11;nan
23166;BME280;11751;42.700;24.170;2022-08-19T06:21:46;93797.25;;;27.11;nan
23166;BME280;11751;42.700;24.170;2022-08-19T06:24:15;93809.97;;;27.04;nan
23166;BME280;11751;42.700;24.170;2022-08-19T06:26:44;93801.88;;;26.98;nan
23166;BME280;11751;42.700;24.170;2022-08-19T06:29:12;93806.50;;;27.33;nan
23166;BME280;11751;42.700;24.170;2022-08-19T06:31:42;93808.66;;;27.32;nan
23166;BME280;11751;42.700;24.170;2022-08-19T06:34:08;93810.28;;;27.63;nan
23166;BME280;11751;42.700;24.170;2022-08-19T06:36:36;93805.44;;;27.71;nan
23166;BME280;11751;42.700;24.170;2022-08-19T06:39:08;93814.47;;;27.60;nan
23166;BME280;11751;42.700;24.170;2022-08-19T06:41:41;93822.13;;;27.75;nan
23166;BME280;11751;42.700;24.170;2022-08-19T06:44:08;93816.94;;;27.96;nan
23166;BME280;11751;42.700;24.170;2022-08-19T06:46:36;93818.25;;;27.91;nan
23166;BME280;11751;42.700;24.170;2022-08-19T06:49:02;93815.53;;;27.97;nan
23166;BME280;11751;42.700;24.170;2022-08-19T06:51:28;93820.00;;;28.02;nan
23166;BME280;11751;42.700;24.170;2022-08-19T06:53:54;93817.66;;;28.22;nan
23166;BME280;11751;42.700;24.170;2022-08-19T06:56:23;93812.19;;;28.34;nan
23166;BME280;11751;42.700;24.170;2022-08-19T06:58:50;93812.28;;;28.11;nan
23166;BME280;11751;42.700;24.170;2022-08-19T07:01:18;93817.66;;;28.22;nan
23166;BME280;11751;42.700;24.170;2022-08-19T07:03:44;93812.19;;;28.34;nan
23166;BME280;11751;42.700;24.170;2022-08-19T07:06:14;93807.16;;;28.64;nan
23166;BME280;11751;42.700;24.170;2022-08-19T07:08:43;93806.63;;;29.01;nan
23166;BME280;11751;42.700;24.170;2022-08-19T07:11:11;93798.63;;;28.99;nan
23166;BME280;11751;42.700;24.170;2022-08-19T07:13:38;93806.50;;;28.97;nan
23166;BME280;11751;42.700;24.170;2022-08-19T07:16:09;93805.38;;;28.49;nan
23166;BME280;11751;42.700;24.170;2022-08-19T07:18:35;93798.50;;;28.64;nan
23166;BME280;11751;42.700;24.170;2022-08-19T07:21:13;93800.97;;;29.07;nan
23166;BME280;11751;42.700;24.170;2022-08-19T07:23:39;93802.50;;;29.10;nan
23166;BME280;11751;42.700;24.170;2022-08-19T07:26:17;93806.31;;;29.52;nan
23166;BME280;11751;42.700;24.170;2022-08-19T07:28:45;93795.63;;;29.60;nan
23166;BME280;11751;42.700;24.170;2022-08-19T07:31:18;93795.31;;;29.79;nan
23166;BME280;11751;42.700;24.170;2022-08-19T07:33:45;93787.00;;;29.97;nan
23166;BME280;11751;42.700;24.170;2022-08-19T07:36:15;93800.34;;;30.16;nan
23166;BME280;11751;42.700;24.170;2022-08-19T07:38:46;93797.50;;;30.18;nan
23166;BME280;11751;42.700;24.170;2022-08-19T07:41:20;93796.09;;;30.21;nan
23166;BME280;11751;42.700;24.170;2022-08-19T07:43:47;93805.72;;;30.34;nan
23166;BME280;11751;42.700;24.170;2022-08-19T07:46:13;93798.06;;;30.48;nan
23166;BME280;11751;42.700;24.170;2022-08-19T07:48:40;93798.69;;;30.46;nan
23166;BME280;11751;42.700;24.170;2022-08-19T07:51:09;93793.88;;;30.57;nan
23166;BME280;11751;42.700;24.170;2022-08-19T07:53:36;93789.88;;;30.80;nan
23166;BME280;11751;42.700;24.170;2022-08-19T07:56:03;93783.00;;;31.03;nan
23166;BME280;11751;42.700;24.170;2022-08-19T07:58:32;93781.69;;;31.12;nan
23166;BME280;11751;42.700;24.170;2022-08-19T08:00:58;93784.84;;;31.30;nan
23166;BME280;11751;42.700;24.170;2022-08-19T08:03:26;93783.63;;;31.48;nan
23166;BME280;11751;42.700;24.170;2022-08-19T08:06:12;93785.09;;;31.49;nan
23166;BME280;11751;42.700;24.170;2022-08-19T08:08:56;93778.13;;;31.70;nan
23166;BME280;11751;42.700;24.170;2022-08-19T08:11:42;93782.63;;;31.81;nan
23166;BME280;11751;42.700;24.170;2022-08-19T08:14:15;93781.19;;;31.82;nan
23166;BME280;11751;42.700;24.170;2022-08-19T08:16:41;93781.69;;;32.28;nan
23166;BME280;11751;42.700;24.170;2022-08-19T08:19:09;93776.66;;;32.30;nan
23166;BME280;11751;42.700;24.170;2022-08-19T08:21:34;93770.28;;;32.50;nan
23166;BME280;11751;42.700;24.170;2022-08-19T08:24:00;93766.94;;;32.83;nan
23166;BME280;11751;42.700;24.170;2022-08-19T08:26:26;93773.56;;;32.96;nan
23166;BME280;11751;42.700;24.170;2022-08-19T08:28:52;93767.63;;;32.76;nan
23166;BME280;11751;42.700;24.170;2022-08-19T08:31:18;93774.34;;;33.04;nan
23166;BME280;11751;42.700;24.170;2022-08-19T08:33:45;93755.56;;;33.13;nan
23166;BME280;11751;42.700;24.170;2022-08-19T08:36:12;93753.41;;;33.15;nan
23166;BME280;11751;42.700;24.170;2022-08-19T08:38:39;93757.03;;;33.16;nan
23166;BME280;11751;42.700;24.170;2022-08-19T08:41:31;93754.16;;;33.18;nan
23166;BME280;11751;42.700;24.170;2022-08-19T08:43:58;93766.47;;;33.13;nan
23166;BME280;11751;42.700;24.170;2022-08-19T08:46:25;93764.41;;;33.39;nan
23166;BME280;11751;42.700;24.170;2022-08-19T08:48:59;93765.09;;;33.29;nan
23166;BME280;11751;42.700;24.170;2022-08-19T08:51:40;93753.53;;;33.37;nan
23166;BME280;11751;42.700;24.170;2022-08-19T08:54:11;93751.47;;;33.60;nan
23166;BME280;11751;42.700;24.170;2022-08-19T08:56:39;93743.53;;;33.68;nan
23166;BME280;11751;42.700;24.170;2022-08-19T08:59:12;93736.19;;;33.57;nan
23166;BME280;11751;42.700;24.170;2022-08-19T09:01:42;93742.09;;;33.77;nan
23166;BME280;11751;42.700;24.170;2022-08-19T09:04:09;93750.09;;;33.89;nan
23166;BME280;11751;42.700;24.170;2022-08-19T09:09:46;93745.53;;;33.40;nan
23166;BME280;11751;42.700;24.170;2022-08-19T09:12:44;93741.16;;;33.33;nan
23166;BME280;11751;42.700;24.170;2022-08-19T09:15:14;93736.09;;;33.31;nan
23166;BME280;11751;42.700;24.170;2022-08-19T09:17:41;93737.44;;;33.14;nan
23166;BME280;11751;42.700;24.170;2022-08-19T09:20:21;93733.00;;;33.02;nan
23166;BME280;11751;42.700;24.170;2022-08-19T09:22:47;93737.03;;;32.59;nan
23166;BME280;11751;42.700;24.170;2022-08-19T09:25:18;93729.69;;;32.50;nan
23166;BME280;11751;42.700;24.170;2022-08-19T09:27:47;93725.59;;;32.79;nan
23166;BME280;11751;42.700;24.170;2022-08-19T09:30:19;93728.47;;;32.73;nan
23166;BME280;11751;42.700;24.170;2022-08-19T09:32:47;93744.34;;;32.66;nan
23166;BME280;11751;42.700;24.170;2022-08-19T09:35:14;93731.19;;;32.57;nan
23166;BME280;11751;42.700;24.170;2022-08-19T09:37:41;93726.91;;;32.60;nan
23166;BME280;11751;42.700;24.170;2022-08-19T09:40:08;93724.84;;;32.76;nan
23166;BME280;11751;42.700;24.170;2022-08-19T09:42:33;93724.34;;;33.10;nan
23166;BME280;11751;42.700;24.170;2022-08-19T09:44:59;93714.03;;;32.83;nan
23166;BME280;11751;42.700;24.170;2022-08-19T09:47:24;93711.16;;;32.89;nan
23166;BME280;11751;42.700;24.170;2022-08-19T09:49:50;93714.84;;;32.99;nan
23166;BME280;11751;42.700;24.170;2022-08-19T09:52:15;93720.00;;;33.11;nan
23166;BME280;11751;42.700;24.170;2022-08-19T09:54:41;93714.25;;;33.18;nan
23166;BME280;11751;42.700;24.170;2022-08-19T09:57:10;93694.56;;;33.05;nan
23166;BME280;11751;42.700;24.170;2022-08-19T09:59:35;93703.38;;;33.23;nan
23166;BME280;11751;42.700;24.170;2022-08-19T10:02:01;93701.28;;;33.41;nan
23166;BME280;11751;42.700;24.170;2022-08-19T10:04:26;93708.59;;;33.50;nan
23166;BME280;11751;42.700;24.170;2022-08-19T10:07:11;93704.84;;;33.30;nan
23166;BME280;11751;42.700;24.170;2022-08-19T10:09:37;93702.13;;;33.66;nan
23166;BME280;11751;42.700;24.170;2022-08-19T10:12:04;93703.47;;;33.49;nan
23166;BME280;11751;42.700;24.170;2022-08-19T10:14:30;93705.75;;;33.60;nan
23166;BME280;11751;42.700;24.170;2022-08-19T10:16:55;93699.16;;;33.56;nan
23166;BME280;11751;42.700;24.170;2022-08-19T10:19:21;93689.81;;;33.81;nan
23166;BME280;11751;42.700;24.170;2022-08-19T10:21:47;93695.63;;;33.81;nan
23166;BME280;11751;42.700;24.170;2022-08-19T10:24:12;93691.22;;;33.64;nan
23166;BME280;11751;42.700;24.170;2022-08-19T10:26:39;93692.72;;;33.81;nan
23166;BME280;11751;42.700;24.170;2022-08-19T10:29:10;93690.53;;;33.74;nan
23166;BME280;11751;42.700;24.170;2022-08-19T10:31:37;93696.34;;;33.88;nan
23166;BME280;11751;42.700;24.170;2022-08-19T10:34:02;93694.22;;;33.92;nan
23166;BME280;11751;42.700;24.170;2022-08-19T10:36:31;93689.88;;;34.01;nan
23166;BME280;11751;42.700;24.170;2022-08-19T10:38:58;93689.16;;;34.10;nan
23166;BME280;11751;42.700;24.170;2022-08-19T10:41:29;93689.81;;;33.85;nan
23166;BME280;11751;42.700;24.170;2022-08-19T10:43:58;93682.59;;;33.90;nan
23166;BME280;11751;42.700;24.170;2022-08-19T10:46:26;93685.44;;;33.78;nan
23166;BME280;11751;42.700;24.170;2022-08-19T10:48:53;93684.03;;;33.89;nan
23166;BME280;11751;42.700;24.170;2022-08-19T10:51:18;93692.59;;;33.53;nan
23166;BME280;11751;42.700;24.170;2022-08-19T10:54:03;93692.63;;;33.51;nan
23166;BME280;11751;42.700;24.170;2022-08-19T10:56:30;93689.78;;;33.75;nan
23166;BME280;11751;42.700;24.170;2022-08-19T10:59:15;93684.03;;;33.99;nan
23166;BME280;11751;42.700;24.170;2022-08-19T11:01:43;93678.22;;;33.81;nan
23166;BME280;11751;42.700;24.170;2022-08-19T11:04:09;93686.94;;;33.99;nan
23166;BME280;11751;42.700;24.170;2022-08-19T11:06:39;93675.34;;;34.55;nan
23166;BME280;11751;42.700;24.170;2022-08-19T11:09:06;93681.22;;;34.59;nan
23166;BME280;11751;42.700;24.170;2022-08-19T11:11:31;93665.91;;;34.40;nan
23166;BME280;11751;42.700;24.170;2022-08-19T11:14:05;93674.59;;;33.99;nan
23166;BME280;11751;42.700;24.170;2022-08-19T11:16:31;93673.91;;;34.22;nan
23166;BME280;11751;42.700;24.170;2022-08-19T11:18:59;93668.84;;;34.26;nan
23166;BME280;11751;42.700;24.170;2022-08-19T11:21:30;93672.41;;;33.93;nan
23166;BME280;11751;42.700;24.170;2022-08-19T11:24:03;93663.72;;;34.15;nan
23166;BME280;11751;42.700;24.170;2022-08-19T11:26:30;93672.44;;;34.33;nan
23166;BME280;11751;42.700;24.170;2022-08-19T11:28:57;93660.09;;;34.12;nan
23166;BME280;11751;42.700;24.170;2022-08-19T11:31:25;93668.09;;;34.30;nan
23166;BME280;11751;42.700;24.170;2022-08-19T11:33:51;93660.81;;;34.15;nan
23166;BME280;11751;42.700;24.170;2022-08-19T11:36:20;93665.19;;;34.22;nan
23166;BME280;11751;42.700;24.170;2022-08-19T11:38:47;93666.66;;;34.19;nan
23166;BME280;11751;42.700;24.170;2022-08-19T11:41:16;93655.03;;;34.09;nan
23166;BME280;11751;42.700;24.170;2022-08-19T11:43:41;93659.34;;;33.92;nan
23166;BME280;11751;42.700;24.170;2022-08-19T11:46:09;93654.25;;;33.93;nan
23166;BME280;11751;42.700;24.170;2022-08-19T11:48:36;93660.78;;;34.07;nan
23166;BME280;11751;42.700;24.170;2022-08-19T11:51:04;93639.75;;;34.22;nan
23166;BME280;11751;42.700;24.170;2022-08-19T11:53:32;93650.66;;;34.14;nan
23166;BME280;11751;42.700;24.170;2022-08-19T11:55:57;93649.13;;;33.83;nan
23166;BME280;11751;42.700;24.170;2022-08-19T11:58:23;93644.81;;;34.06;nan
23166;BME280;11751;42.700;24.170;2022-08-19T12:00:50;93637.56;;;34.41;nan
23166;BME280;11751;42.700;24.170;2022-08-19T12:03:16;93642.66;;;34.20;nan
23166;BME280;11751;42.700;24.170;2022-08-19T12:05:41;93633.19;;;34.48;nan
23166;BME280;11751;42.700;24.170;2022-08-19T12:08:08;93628.81;;;34.43;nan
23166;BME280;11751;42.700;24.170;2022-08-19T12:10:34;93641.91;;;34.54;nan
23166;BME280;11751;42.700;24.170;2022-08-19T12:13:00;93630.28;;;34.48;nan
23166;BME280;11751;42.700;24.170;2022-08-19T12:15:27;93631.75;;;34.49;nan
23166;BME280;11751;42.700;24.170;2022-08-19T12:17:56;93627.38;;;34.44;nan
23166;BME280;11751;42.700;24.170;2022-08-19T12:20:23;93625.22;;;34.30;nan
23166;BME280;11751;42.700;24.170;2022-08-19T12:22:49;93621.59;;;34.28;nan
23166;BME280;11751;42.700;24.170;2022-08-19T12:25:15;93623.03;;;34.23;nan
23166;BME280;11751;42.700;24.170;2022-08-19T12:27:41;93623.03;;;34.31;nan
23166;BME280;11751;42.700;24.170;2022-08-19T12:30:09;93615.03;;;34.33;nan
23166;BME280;11751;42.700;24.170;2022-08-19T12:32:35;93612.84;;;34.40;nan
23166;BME280;11751;42.700;24.170;2022-08-19T12:35:01;93612.81;;;34.56;nan
23166;BME280;11751;42.700;24.170;2022-08-19T12:37:27;93609.91;;;34.62;nan
23166;BME280;11751;42.700;24.170;2022-08-19T12:39:53;93614.28;;;34.53;nan
23166;BME280;11751;42.700;24.170;2022-08-19T12:42:18;93620.13;;;34.29;nan
23166;BME280;11751;42.700;24.170;2022-08-19T12:44:45;93614.31;;;34.37;nan
23166;BME280;11751;42.700;24.170;2022-08-19T12:47:12;93623.03;;;34.39;nan
23166;BME280;11751;42.700;24.170;2022-08-19T12:49:40;93611.44;;;34.09;nan
23166;BME280;11751;42.700;24.170;2022-08-19T12:52:08;93614.34;;;34.09;nan
23166;BME280;11751;42.700;24.170;2022-08-19T12:54:37;93620.16;;;34.21;nan
23166;BME280;11751;42.700;24.170;2022-08-19T12:57:06;93607.75;;;34.01;nan
23166;BME280;11751;42.700;24.170;2022-08-19T12:59:34;93616.47;;;33.83;nan
23166;BME280;11751;42.700;24.170;2022-08-19T13:02:00;93597.59;;;34.07;nan
23166;BME280;11751;42.700;24.170;2022-08-19T13:04:25;93615.75;;;34.22;nan
23166;BME280;11751;42.700;24.170;2022-08-19T13:06:51;93612.84;;;34.36;nan
23166;BME280;11751;42.700;24.170;2022-08-19T13:09:16;93607.06;;;34.08;nan
23166;BME280;11751;42.700;24.170;2022-08-19T13:11:41;93608.50;;;34.31;nan
23166;BME280;11751;42.700;24.170;2022-08-19T13:14:08;93604.88;;;34.06;nan
23166;BME280;11751;42.700;24.170;2022-08-19T13:16:36;93604.13;;;33.82;nan
23166;BME280;11751;42.700;24.170;2022-08-19T13:19:01;93609.22;;;34.17;nan